Moreland, Idaho
Current Conditions -  °F | °C
As of 3:13 PM on Monday 22 Dec 2014 (Local Time) from KPIH Reporting Station
Light Snow Light Snow  
Wind Chill: 34°   Ceiling: 2500
Heat Index: 39°   Visibility: 10mi
Dew Point: 33°   Wind: 7mph
Humidity: 79%   Direction: 340°NNW
Pressure: 30.01"   Gusts: NA
Location:  43.22°N, 112.44°W
Report Text: KPIH 222213Z 34006KT 10SM -RASN BKN025 BKN050 OVC065 04/01 A3001 RMK AO2 PLE07 P0000 T00390006
Loading
Personal Weather Stations






























Interactive Weather Map New forecast layout! Learn more

10-Day Weather Forecast

Advertisements
Track Severe Weather on mobile